Time;durP1;ratioP1;P1;durP2;ratioP2;P2;SDS_P1;SDS_P2;PMS_P1;PMS_P2;Temp;Humidity;BMP_temperature;BMP_pressure;BME280_temperature;BME280_humidity;BME280_pressure;Samples;Min_cycle;Max_cycle;Signal;HPM_P1;HPM_P2
2023/04/14 00:00:35;;;;;;;8.63;6.57;;;;;19.90;99764.00;;;;2079398;28;20230;-65
2023/04/14 00:01:36;;;;;;;8.73;6.10;;;;;19.90;99760.00;;;;2080059;28;20263;-65
2023/04/14 00:02:36;;;;;;;8.80;6.60;;;;;20.00;99763.00;;;;2079113;28;20696;-64
2023/04/14 00:03:36;;;;;;;6.93;5.40;;;;;19.90;99756.00;;;;2080372;28;20218;-65
2023/04/14 00:04:37;;;;;;;7.90;6.00;;;;;19.90;99757.00;;;;2079399;28;20213;-64
2023/04/14 00:05:37;;;;;;;8.83;6.27;;;;;19.90;99760.00;;;;2079999;28;20237;-64
2023/04/14 00:06:37;;;;;;;7.20;6.50;;;;;19.90;99727.00;;;;2080245;28;20268;-64
2023/04/14 00:07:37;;;;;;;7.60;6.20;;;;;19.90;99759.00;;;;2079236;28;20210;-64
2023/04/14 00:08:38;;;;;;;8.17;7.00;;;;;19.90;99752.00;;;;2080106;28;20226;-65
2023/04/14 00:09:38;;;;;;;7.83;6.50;;;;;19.90;99767.00;;;;2080600;28;20757;-65
2023/04/14 00:10:38;;;;;;;6.90;5.60;;;;;19.90;99762.00;;;;2080085;28;20586;-64
2023/04/14 00:11:39;;;;;;;7.70;5.97;;;;;19.90;99763.00;;;;2079921;28;20221;-64
2023/04/14 00:12:39;;;;;;;7.77;5.73;;;;;19.90;99764.00;;;;2081370;28;20214;-65
2023/04/14 00:13:39;;;;;;;8.67;5.73;;;;;19.90;99764.00;;;;2079876;28;20220;-65
2023/04/14 00:14:41;;;;;;;7.67;6.23;;;;;19.90;99767.00;;;;2082373;28;20214;-64
2023/04/14 00:15:42;;;;;;;9.88;5.78;;;;;19.90;99770.00;;;;2080019;28;20213;-64
2023/04/14 00:16:42;;;;;;;6.23;5.40;;;;;19.90;99768.00;;;;2083277;28;20205;-64
2023/04/14 00:17:43;;;;;;;8.30;5.73;;;;;19.90;99769.00;;;;2073948;28;20256;-64
2023/04/14 00:18:43;;;;;;;9.70;6.10;;;;;19.90;99768.00;;;;2079444;28;20214;-65
2023/04/14 00:19:43;;;;;;;7.07;5.93;;;;;19.90;99774.00;;;;2080027;28;20221;-64
2023/04/14 00:20:45;;;;;;;8.90;6.03;;;;;19.90;99768.00;;;;2079885;28;20213;-64
2023/04/14 00:21:46;;;;;;;6.43;4.72;;;;;19.90;99775.00;;;;2077739;28;20288;-64
2023/04/14 00:22:46;;;;;;;7.20;5.27;;;;;19.90;99778.00;;;;2079120;28;20209;-65
2023/04/14 00:23:46;;;;;;;7.57;5.53;;;;;19.90;99779.00;;;;2079213;28;20673;-65
2023/04/14 00:24:49;;;;;;;6.03;4.90;;;;;19.90;99779.00;;;;2079987;28;20260;-64
2023/04/14 00:25:49;;;;;;;6.57;4.35;;;;;19.90;99774.00;;;;2081171;28;20225;-64
2023/04/14 00:26:50;;;;;;;7.90;5.13;;;;;19.90;99779.00;;;;2084292;28;20214;-65
2023/04/14 00:27:50;;;;;;;8.30;5.43;;;;;19.90;99781.00;;;;2079787;28;20243;-64
2023/04/14 00:28:51;;;;;;;6.70;5.60;;;;;19.90;99780.00;;;;2079168;28;20237;-64
2023/04/14 00:29:51;;;;;;;5.93;5.13;;;;;19.80;99777.00;;;;2079900;28;20236;-64
2023/04/14 00:30:51;;;;;;;5.83;4.40;;;;;19.80;99780.00;;;;2079224;28;20280;-64
2023/04/14 00:31:52;;;;;;;7.13;5.23;;;;;19.90;99776.00;;;;2079715;28;20221;-64
2023/04/14 00:32:52;;;;;;;5.53;4.07;;;;;19.90;99781.00;;;;2079257;28;20218;-64
2023/04/14 00:33:52;;;;;;;7.17;4.90;;;;;19.80;99784.00;;;;2079991;28;20221;-65
2023/04/14 00:34:53;;;;;;;5.40;4.87;;;;;19.90;99776.00;;;;2079702;28;20240;-65
2023/04/14 00:35:53;;;;;;;6.23;4.90;;;;;19.80;99785.00;;;;2079318;28;20221;-64
2023/04/14 00:36:53;;;;;;;6.13;4.43;;;;;19.80;99781.00;;;;2079894;28;20673;-64
2023/04/14 00:37:55;;;;;;;6.00;4.27;;;;;19.90;99787.00;;;;2082306;28;20243;-64
2023/04/14 00:38:56;;;;;;;6.55;4.82;;;;;19.80;99782.00;;;;2072537;28;20223;-64
2023/04/14 00:39:56;;;;;;;6.03;4.70;;;;;19.80;99782.00;;;;2076031;28;22127;-64
2023/04/14 00:40:56;;;;;;;6.43;5.13;;;;;19.80;99784.00;;;;2073860;28;20337;-65
2023/04/14 00:41:56;;;;;;;5.20;4.50;;;;;19.80;99785.00;;;;2062293;28;21175;-64
2023/04/14 00:42:57;;;;;;;5.97;4.50;;;;;19.80;99785.00;;;;2066981;28;20734;-65
2023/04/14 00:43:58;;;;;;;4.80;4.03;;;;;19.80;99785.00;;;;2071411;28;20225;-64
2023/04/14 00:44:58;;;;;;;4.40;3.90;;;;;19.80;99783.00;;;;2070953;28;20253;-64
2023/04/14 00:45:59;;;;;;;6.93;4.90;;;;;19.80;99790.00;;;;2071694;28;20214;-64
2023/04/14 00:47:00;;;;;;;5.60;4.50;;;;;19.80;99795.00;;;;2062218;28;20707;-65
2023/04/14 00:48:00;;;;;;;7.40;4.60;;;;;19.90;99793.00;;;;2063029;28;20314;-64
2023/04/14 00:49:01;;;;;;;6.83;6.13;;;;;19.80;99788.00;;;;2061907;28;20779;-65
2023/04/14 00:50:01;;;;;;;6.33;4.20;;;;;19.80;99789.00;;;;2061564;28;20246;-64
2023/04/14 00:51:02;;;;;;;5.10;4.10;;;;;19.80;99793.00;;;;2062932;28;20229;-64
2023/04/14 00:52:02;;;;;;;6.13;3.70;;;;;19.80;99790.00;;;;2061629;28;20215;-64
2023/04/14 00:53:03;;;;;;;4.77;3.87;;;;;19.80;99789.00;;;;2062817;28;20513;-64
2023/04/14 00:54:04;;;;;;;5.90;4.20;;;;;19.80;99791.00;;;;2061918;28;20784;-64
2023/04/14 00:55:05;;;;;;;4.60;3.47;;;;;19.80;99794.00;;;;2071638;28;20218;-64
2023/04/14 00:56:06;;;;;;;4.73;3.70;;;;;19.80;99793.00;;;;2071608;28;20221;-65
2023/04/14 00:57:06;;;;;;;4.90;3.83;;;;;19.80;99797.00;;;;2071106;28;20999;-65
2023/04/14 00:58:07;;;;;;;5.90;3.97;;;;;19.70;99788.00;;;;2071454;28;20214;-65
2023/04/14 00:59:07;;;;;;;4.30;3.63;;;;;19.80;99788.00;;;;2070583;28;20217;-64
2023/04/14 01:00:08;;;;;;;5.13;3.60;;;;;19.80;99796.00;;;;2062683;28;20234;-64
2023/04/14 01:01:08;;;;;;;5.70;3.83;;;;;19.80;99802.00;;;;2062200;28;20211;-64
2023/04/14 01:02:09;;;;;;;6.13;4.07;;;;;19.80;99805.00;;;;2062382;28;20686;-64
2023/04/14 01:03:09;;;;;;;5.43;4.03;;;;;19.80;99797.00;;;;2054834;28;20238;-64
2023/04/14 01:04:10;;;;;;;6.13;4.00;;;;;19.80;99806.00;;;;2061925;28;20215;-65
2023/04/14 01:05:10;;;;;;;4.00;3.30;;;;;19.80;99802.00;;;;2062712;28;20238;-64
2023/04/14 01:06:11;;;;;;;5.30;3.53;;;;;19.80;99806.00;;;;2070696;28;20312;-64
2023/04/14 01:07:11;;;;;;;4.23;3.20;;;;;19.70;99805.00;;;;2071557;28;20681;-65
2023/04/14 01:08:11;;;;;;;3.90;3.50;;;;;19.80;99791.00;;;;2070814;28;20705;-64
2023/04/14 01:09:12;;;;;;;4.40;3.40;;;;;19.80;99806.00;;;;2056249;28;20216;-65
2023/04/14 01:10:12;;;;;;;5.37;4.00;;;;;19.80;99808.00;;;;2054746;28;20242;-64
2023/04/14 01:11:16;;;;;;;6.43;3.20;;;;;19.80;99803.00;;;;2068623;28;20210;-64
2023/04/14 01:12:22;;;;;;;4.65;3.65;;;;;19.70;99802.00;;;;2079312;28;20543;-64
2023/04/14 01:13:45;;;;;;;4.95;3.65;;;;;19.70;99804.00;;;;2082552;28;20226;-64
2023/04/14 01:15:07;;;;;;;4.78;3.55;;;;;19.70;99789.00;;;;2075103;28;20244;-64
2023/04/14 01:16:35;;;;;;;5.20;3.40;;;;;19.70;99811.00;;;;2064705;28;20207;-64
2023/04/14 01:17:51;;;;;;;4.55;3.40;;;;;19.70;99807.00;;;;2056632;28;20582;-64
2023/04/14 01:18:57;;;;;;;5.40;3.80;;;;;19.70;99810.00;;;;2056942;28;20226;-64
2023/04/14 01:20:16;;;;;;;4.03;3.13;;;;;19.70;99810.00;;;;2062530;28;20237;-64
2023/04/14 01:21:22;;;;;;;5.30;4.05;;;;;19.70;99805.00;;;;2079331;28;20205;-64
2023/04/14 01:22:22;;;;;;;4.93;3.50;;;;;19.70;99819.00;;;;2077949;28;20216;-64
2023/04/14 01:23:25;;;;;;;4.60;3.00;;;;;19.70;99806.00;;;;2078815;28;20256;-65
2023/04/14 01:24:38;;;;;;;4.78;3.30;;;;;19.70;99811.00;;;;2079119;28;20217;-65
2023/04/14 01:26:05;;;;;;;5.20;3.45;;;;;19.70;99822.00;;;;2078817;28;20222;-64
2023/04/14 01:27:43;;;;;;;3.75;2.80;;;;;19.70;99829.00;;;;2069956;28;20826;-65
2023/04/14 01:29:14;;;;;;;3.60;2.35;;;;;19.70;99823.00;;;;2045919;29;20253;-64
2023/04/14 01:30:30;;;;;;;4.68;3.42;;;;;19.60;99831.00;;;;2045520;28;20212;-64
2023/04/14 01:31:37;;;;;;;4.25;3.05;;;;;19.60;99830.00;;;;2060519;28;20249;-62
2023/04/14 01:32:41;;;;;;;4.22;3.00;;;;;19.70;99822.00;;;;2072893;28;20310;-64
2023/04/14 01:33:42;;;;;;;4.85;3.15;;;;;19.70;99823.00;;;;2078231;28;20226;-64
2023/04/14 01:34:45;;;;;;;5.43;3.03;;;;;19.70;99825.00;;;;2077853;28;20232;-64
2023/04/14 01:35:48;;;;;;;3.55;2.83;;;;;19.70;99817.00;;;;2072334;28;20214;-64
2023/04/14 01:36:55;;;;;;;4.40;2.85;;;;;19.70;99826.00;;;;2075308;28;20206;-64
2023/04/14 01:37:59;;;;;;;4.22;3.25;;;;;19.60;99824.00;;;;2078646;28;20251;-64
2023/04/14 01:38:59;;;;;;;2.88;2.58;;;;;19.60;99812.00;;;;2070557;28;20950;-64
2023/04/14 01:40:02;;;;;;;4.10;3.10;;;;;19.60;99812.00;;;;2070603;28;20261;-64
2023/04/14 01:41:05;;;;;;;4.85;3.13;;;;;19.70;99824.00;;;;2069882;28;20228;-64
2023/04/14 01:42:08;;;;;;;4.65;3.40;;;;;19.60;99796.00;;;;2071862;28;20296;-64
2023/04/14 01:43:10;;;;;;;3.55;2.80;;;;;19.70;99821.00;;;;2074779;28;20263;-64
2023/04/14 01:44:10;;;;;;;4.63;2.83;;;;;19.70;99817.00;;;;2061825;28;20631;-64
2023/04/14 01:45:24;;;;;;;3.60;2.70;;;;;19.70;99819.00;;;;2062595;28;20263;-64
2023/04/14 01:46:24;;;;;;;4.97;2.83;;;;;19.70;99828.00;;;;2070036;28;20312;-64
2023/04/14 01:47:25;;;;;;;3.40;2.70;;;;;19.70;99822.00;;;;2077216;28;20689;-64
2023/04/14 01:48:25;;;;;;;2.93;2.63;;;;;19.60;99828.00;;;;2077893;28;20252;-64
2023/04/14 01:49:25;;;;;;;4.33;3.30;;;;;19.70;99818.00;;;;2078598;28;20222;-64
2023/04/14 01:50:26;;;;;;;3.70;2.70;;;;;19.60;99819.00;;;;2078197;28;20214;-64
2023/04/14 01:51:27;;;;;;;4.63;2.80;;;;;19.60;99826.00;;;;2078880;28;20209;-64
2023/04/14 01:52:27;;;;;;;2.80;2.40;;;;;19.60;99824.00;;;;2070466;28;20264;-64
2023/04/14 01:53:27;;;;;;;3.27;2.40;;;;;19.60;99830.00;;;;2078060;28;20464;-64
2023/04/14 01:54:28;;;;;;;3.80;2.50;;;;;19.60;99807.00;;;;2078781;28;20220;-64
2023/04/14 01:55:28;;;;;;;3.40;2.50;;;;;19.60;99826.00;;;;2078024;28;20213;-64
2023/04/14 01:56:28;;;;;;;3.47;2.67;;;;;19.60;99826.00;;;;2070562;28;20220;-64
2023/04/14 01:57:29;;;;;;;2.60;2.33;;;;;19.60;99800.00;;;;2069936;28;20218;-64
2023/04/14 01:58:29;;;;;;;3.27;2.53;;;;;19.60;99826.00;;;;2066673;28;20226;-64
2023/04/14 01:59:29;;;;;;;4.37;2.50;;;;;19.60;99824.00;;;;2070516;28;20218;-64
2023/04/14 02:00:30;;;;;;;4.93;3.30;;;;;19.60;99826.00;;;;2070449;28;20677;-64
2023/04/14 02:01:31;;;;;;;3.92;2.70;;;;;19.60;99825.00;;;;2070607;28;20307;-64
2023/04/14 02:02:31;;;;;;;3.20;2.20;;;;;19.60;99832.00;;;;2077613;28;20655;-64
2023/04/14 02:03:31;;;;;;;3.10;2.30;;;;;19.60;99821.00;;;;2078447;28;20732;-64
2023/04/14 02:04:32;;;;;;;3.90;2.87;;;;;19.60;99825.00;;;;2077926;28;20245;-64
2023/04/14 02:05:34;;;;;;;4.83;2.63;;;;;19.60;99822.00;;;;2078405;28;20217;-64
2023/04/14 02:06:34;;;;;;;4.32;2.75;;;;;19.60;99825.00;;;;2078312;28;20225;-64
2023/04/14 02:07:35;;;;;;;3.53;2.30;;;;;19.60;99822.00;;;;2078111;28;20213;-64
2023/04/14 02:08:36;;;;;;;2.83;2.40;;;;;19.60;99819.00;;;;2070363;28;20631;-64
2023/04/14 02:09:36;;;;;;;3.83;2.30;;;;;19.60;99823.00;;;;2069669;28;20272;-64
2023/04/14 02:10:38;;;;;;;4.03;2.70;;;;;19.60;99823.00;;;;2062436;28;20986;-65
2023/04/14 02:11:38;;;;;;;3.92;2.50;;;;;19.60;99818.00;;;;2069393;28;20686;-64
2023/04/14 02:12:40;;;;;;;4.03;2.57;;;;;19.60;99825.00;;;;2076390;28;20218;-64
2023/04/14 02:13:40;;;;;;;5.40;2.60;;;;;19.60;99823.00;;;;2062574;28;20222;-64
2023/04/14 02:14:40;;;;;;;2.97;2.60;;;;;19.60;99823.00;;;;2069852;28;20226;-64
2023/04/14 02:15:41;;;;;;;3.40;2.57;;;;;19.60;99827.00;;;;2078352;28;20217;-64
2023/04/14 02:16:41;;;;;;;3.57;2.50;;;;;19.60;99827.00;;;;2078038;28;20228;-65
2023/04/14 02:17:41;;;;;;;3.97;2.57;;;;;19.60;99826.00;;;;2078318;28;20209;-64
2023/04/14 02:18:42;;;;;;;4.00;2.93;;;;;19.60;99812.00;;;;2070870;28;20306;-64
2023/04/14 02:19:42;;;;;;;3.00;2.30;;;;;19.60;99817.00;;;;2065089;28;20222;-65
2023/04/14 02:20:43;;;;;;;3.97;2.47;;;;;19.60;99828.00;;;;2067963;28;20701;-65
2023/04/14 02:21:44;;;;;;;4.10;2.47;;;;;19.60;99825.00;;;;2061129;28;20222;-64
2023/04/14 02:22:44;;;;;;;2.50;2.23;;;;;19.60;99826.00;;;;2062384;28;20459;-64
2023/04/14 02:23:45;;;;;;;5.00;2.27;;;;;19.60;99831.00;;;;2077688;28;20205;-64
2023/04/14 02:24:46;;;;;;;3.30;2.90;;;;;19.60;99830.00;;;;2078376;28;20213;-64
2023/04/14 02:25:55;;;;;;;4.18;2.10;;;;;19.60;99828.00;;;;2079025;28;20217;-64
2023/04/14 02:27:02;;;;;;;3.80;2.75;;;;;19.50;99833.00;;;;2075135;28;20302;-64
2023/04/14 02:28:21;;;;;;;3.58;2.47;;;;;19.60;99834.00;;;;2054985;28;20230;-64
2023/04/14 02:29:22;;;;;;;4.35;2.47;;;;;19.60;99834.00;;;;2061343;28;20222;-64
2023/04/14 02:30:30;;;;;;;3.90;2.40;;;;;19.60;99835.00;;;;2071496;28;20225;-64
2023/04/14 02:31:30;;;;;;;2.50;2.20;;;;;19.60;99834.00;;;;2073354;28;20457;-64
2023/04/14 02:32:31;;;;;;;5.13;2.40;;;;;19.60;99842.00;;;;2071495;28;20635;-64
2023/04/14 02:33:34;;;;;;;4.43;2.93;;;;;19.50;99827.00;;;;2079510;28;20616;-64
2023/04/14 02:34:35;;;;;;;3.05;2.17;;;;;19.60;99833.00;;;;2064010;28;21005;-64
2023/04/14 02:35:41;;;;;;;2.70;2.17;;;;;19.60;99821.00;;;;2062978;28;20322;-64
2023/04/14 02:36:45;;;;;;;4.20;2.65;;;;;19.50;99835.00;;;;2061095;28;20274;-64
2023/04/14 02:37:47;;;;;;;2.95;2.17;;;;;19.50;99821.00;;;;2066464;28;20273;-64
2023/04/14 02:38:55;;;;;;;3.65;2.13;;;;;19.60;99831.00;;;;2072155;28;20249;-64
2023/04/14 02:39:59;;;;;;;4.03;2.70;;;;;19.50;99830.00;;;;2072512;28;20261;-64
2023/04/14 02:41:00;;;;;;;4.00;2.22;;;;;19.50;99829.00;;;;2065330;28;20232;-65
2023/04/14 02:42:04;;;;;;;3.77;2.43;;;;;19.50;99831.00;;;;2062789;28;20214;-64
2023/04/14 02:43:17;;;;;;;2.90;2.47;;;;;19.50;99833.00;;;;2059598;28;20457;-64
2023/04/14 02:44:20;;;;;;;2.63;2.25;;;;;19.50;99842.00;;;;2067402;28;20206;-65
2023/04/14 02:45:22;;;;;;;2.50;2.13;;;;;19.50;99837.00;;;;2072064;28;20906;-64
2023/04/14 02:46:23;;;;;;;2.40;1.95;;;;;19.50;99819.00;;;;2072337;28;20566;-63
2023/04/14 02:47:32;;;;;;;2.88;2.40;;;;;19.50;99834.00;;;;2071531;28;21831;-64
2023/04/14 02:48:33;;;;;;;2.83;2.28;;;;;19.50;99837.00;;;;2072941;28;20234;-64
2023/04/14 02:49:34;;;;;;;3.47;2.37;;;;;19.50;99831.00;;;;2070918;28;20218;-64
2023/04/14 02:50:35;;;;;;;3.15;2.42;;;;;19.50;99820.00;;;;2071701;28;20457;-64
2023/04/14 02:51:35;;;;;;;2.63;2.30;;;;;19.50;99837.00;;;;2070982;28;20234;-64
2023/04/14 02:52:35;;;;;;;3.37;2.60;;;;;19.50;99834.00;;;;2063806;28;20281;-64
2023/04/14 02:53:36;;;;;;;3.77;2.27;;;;;19.50;99842.00;;;;2071924;28;20220;-64
2023/04/14 02:54:39;;;;;;;2.60;2.40;;;;;19.50;99840.00;;;;2063071;28;20207;-64
2023/04/14 02:55:39;;;;;;;3.03;2.03;;;;;19.50;99835.00;;;;2064321;28;20222;-65
2023/04/14 02:56:40;;;;;;;2.77;2.40;;;;;19.50;99838.00;;;;2071307;28;20677;-64
2023/04/14 02:57:40;;;;;;;2.50;1.83;;;;;19.50;99840.00;;;;2071913;28;20222;-65
2023/04/14 02:58:40;;;;;;;3.47;2.00;;;;;19.50;99831.00;;;;2080642;28;20248;-64
2023/04/14 02:59:41;;;;;;;3.00;2.50;;;;;19.50;99835.00;;;;2073609;28;20249;-65
2023/04/14 03:00:42;;;;;;;2.33;2.13;;;;;19.50;99830.00;;;;2071270;28;20293;-64
2023/04/14 03:01:42;;;;;;;3.53;2.40;;;;;19.50;99841.00;;;;2075345;28;20632;-64
2023/04/14 03:02:43;;;;;;;2.93;2.27;;;;;19.50;99840.00;;;;2079978;28;20308;-64
2023/04/14 03:03:44;;;;;;;3.20;2.50;;;;;19.50;99834.00;;;;2079409;28;20210;-64
2023/04/14 03:04:44;;;;;;;4.30;2.30;;;;;19.50;99835.00;;;;2078643;28;20224;-64
2023/04/14 03:05:45;;;;;;;2.10;1.80;;;;;19.50;99838.00;;;;2080182;28;20221;-64
2023/04/14 03:06:45;;;;;;;4.03;2.43;;;;;19.50;99837.00;;;;2079796;28;20256;-64
2023/04/14 03:07:45;;;;;;;3.10;1.87;;;;;19.50;99832.00;;;;2079846;28;20349;-64
2023/04/14 03:08:46;;;;;;;2.97;2.03;;;;;19.50;99822.00;;;;2080741;28;20580;-65
2023/04/14 03:09:48;;;;;;;3.60;2.07;;;;;19.50;99839.00;;;;2079106;28;20213;-64
2023/04/14 03:10:48;;;;;;;2.95;1.95;;;;;19.50;99838.00;;;;2080026;28;20832;-64
2023/04/14 03:11:49;;;;;;;3.60;2.60;;;;;19.50;99842.00;;;;2070583;28;20221;-64
2023/04/14 03:12:49;;;;;;;3.07;2.10;;;;;19.50;99847.00;;;;2079648;28;20244;-64
2023/04/14 03:13:51;;;;;;;2.73;2.03;;;;;19.50;99837.00;;;;2080521;28;20213;-64
2023/04/14 03:14:52;;;;;;;2.78;2.20;;;;;19.50;99833.00;;;;2084391;28;20217;-64
2023/04/14 03:15:52;;;;;;;3.20;1.87;;;;;19.50;99838.00;;;;2081881;28;20985;-64
2023/04/14 03:16:52;;;;;;;2.63;2.10;;;;;19.40;99832.00;;;;2079083;28;20630;-64
2023/04/14 03:17:55;;;;;;;3.07;2.30;;;;;19.40;99823.00;;;;2079716;28;20767;-64
2023/04/14 03:18:55;;;;;;;3.80;2.22;;;;;19.40;99818.00;;;;2078844;28;20217;-65
2023/04/14 03:19:56;;;;;;;2.60;2.33;;;;;19.40;99831.00;;;;2072589;28;20226;-64
2023/04/14 03:20:59;;;;;;;3.00;2.27;;;;;19.40;99836.00;;;;2071758;28;20218;-64
2023/04/14 03:21:59;;;;;;;3.92;2.03;;;;;19.40;99823.00;;;;2071109;28;20251;-64
2023/04/14 03:23:03;;;;;;;3.30;2.27;;;;;19.50;99841.00;;;;2072009;28;20276;-64
2023/04/14 03:24:05;;;;;;;4.38;2.58;;;;;19.40;99841.00;;;;2071590;28;20319;-64
2023/04/14 03:25:05;;;;;;;2.03;1.80;;;;;19.40;99838.00;;;;2063733;28;20215;-64
2023/04/14 03:26:06;;;;;;;2.60;2.10;;;;;19.40;99839.00;;;;2071185;28;21038;-65
2023/04/14 03:27:09;;;;;;;2.17;1.80;;;;;19.40;99846.00;;;;2069099;28;20268;-64
2023/04/14 03:28:13;;;;;;;2.65;1.60;;;;;19.40;99848.00;;;;2071917;28;20206;-65
2023/04/14 03:29:14;;;;;;;2.88;2.05;;;;;19.40;99839.00;;;;2078715;28;21005;-64
2023/04/14 03:30:14;;;;;;;4.50;2.30;;;;;19.40;99839.00;;;;2080451;28;20245;-64
2023/04/14 03:31:17;;;;;;;2.97;2.23;;;;;19.40;99838.00;;;;2079684;28;20213;-64
2023/04/14 03:32:18;;;;;;;2.80;1.95;;;;;19.40;99835.00;;;;2073521;28;20229;-64
2023/04/14 03:33:22;;;;;;;2.40;2.20;;;;;19.40;99838.00;;;;2078829;28;20772;-64
2023/04/14 03:34:24;;;;;;;4.78;2.08;;;;;19.40;99839.00;;;;2079685;28;20229;-64
2023/04/14 03:35:24;;;;;;;2.65;1.92;;;;;19.40;99826.00;;;;2079226;28;20225;-64
2023/04/14 03:36:25;;;;;;;2.57;2.10;;;;;19.40;99845.00;;;;2079069;28;20708;-64
2023/04/14 03:37:25;;;;;;;3.07;2.00;;;;;19.40;99838.00;;;;2079750;28;20289;-64
2023/04/14 03:38:26;;;;;;;3.10;2.47;;;;;19.40;99830.00;;;;2078936;28;20213;-64
2023/04/14 03:39:31;;;;;;;3.25;2.33;;;;;19.40;99847.00;;;;2079237;28;20213;-64
2023/04/14 03:40:34;;;;;;;2.17;1.73;;;;;19.40;99849.00;;;;2078272;28;20229;-64
2023/04/14 03:41:36;;;;;;;2.67;2.05;;;;;19.40;99844.00;;;;2079286;28;21054;-65
2023/04/14 03:42:37;;;;;;;2.80;2.10;;;;;19.40;99848.00;;;;2076804;28;20301;-64
2023/04/14 03:43:37;;;;;;;3.65;2.35;;;;;19.30;99843.00;;;;2079125;28;20213;-65
2023/04/14 03:44:41;;;;;;;3.27;2.13;;;;;19.40;99848.00;;;;2079475;28;20209;-64
2023/04/14 03:45:43;;;;;;;4.35;2.30;;;;;19.40;99851.00;;;;2078520;28;20217;-64
2023/04/14 03:46:43;;;;;;;2.78;2.45;;;;;19.40;99855.00;;;;2080287;28;20259;-65
2023/04/14 03:47:44;;;;;;;3.47;1.87;;;;;19.40;99848.00;;;;2082400;28;20220;-64
2023/04/14 03:48:44;;;;;;;2.90;2.17;;;;;19.40;99848.00;;;;2080489;28;20234;-64
2023/04/14 03:49:48;;;;;;;4.07;2.20;;;;;19.40;99853.00;;;;2080557;28;20241;-64
2023/04/14 03:50:50;;;;;;;3.42;2.08;;;;;19.40;99854.00;;;;2080367;28;20252;-64
2023/04/14 03:51:52;;;;;;;2.65;1.95;;;;;19.40;99848.00;;;;2078640;28;20300;-64
2023/04/14 03:52:53;;;;;;;3.40;1.88;;;;;19.40;99851.00;;;;2079640;28;20215;-65
2023/04/14 03:53:55;;;;;;;2.92;1.85;;;;;19.40;99854.00;;;;2079708;28;20214;-64
2023/04/14 03:54:57;;;;;;;2.80;1.73;;;;;19.40;99842.00;;;;2078736;28;20227;-64
2023/04/14 03:55:58;;;;;;;3.25;2.40;;;;;19.40;99849.00;;;;2079715;28;20580;-64
2023/04/14 03:57:00;;;;;;;3.00;1.87;;;;;19.30;99860.00;;;;2078983;28;20240;-65
2023/04/14 03:58:01;;;;;;;5.05;2.47;;;;;19.40;99858.00;;;;2079499;28;20464;-64
2023/04/14 03:59:01;;;;;;;2.50;1.70;;;;;19.40;99863.00;;;;2078858;28;20217;-64
2023/04/14 04:00:03;;;;;;;2.30;1.70;;;;;19.40;99869.00;;;;2079740;28;20324;-64
2023/04/14 04:01:04;;;;;;;2.65;1.92;;;;;19.40;99857.00;;;;2071113;28;20934;-64
2023/04/14 04:02:05;;;;;;;3.60;2.00;;;;;19.30;99847.00;;;;2054727;28;20274;-64
2023/04/14 04:03:05;;;;;;;3.38;1.83;;;;;19.30;99864.00;;;;2037905;28;20605;-64
2023/04/14 04:04:06;;;;;;;4.00;2.37;;;;;19.40;99864.00;;;;2062275;28;20214;-64
2023/04/14 04:05:06;;;;;;;2.13;1.90;;;;;19.30;99851.00;;;;2076193;28;20234;-65
2023/04/14 04:06:07;;;;;;;5.03;2.40;;;;;19.30;99861.00;;;;2062764;28;20381;-64
2023/04/14 04:07:09;;;;;;;3.80;2.03;;;;;19.30;99860.00;;;;2060472;28;20285;-65
2023/04/14 04:08:09;;;;;;;3.47;1.85;;;;;19.30;99863.00;;;;2071102;28;20335;-65
2023/04/14 04:09:11;;;;;;;2.50;2.07;;;;;19.30;99860.00;;;;2070843;28;20206;-64
2023/04/14 04:10:12;;;;;;;2.88;1.80;;;;;19.30;99869.00;;;;2071377;28;20658;-64
2023/04/14 04:11:12;;;;;;;3.20;2.10;;;;;19.30;99870.00;;;;2070633;28;20214;-64
2023/04/14 04:12:12;;;;;;;5.73;2.33;;;;;19.40;99839.00;;;;2074212;28;20260;-64
2023/04/14 04:13:15;;;;;;;4.90;2.07;;;;;19.30;99871.00;;;;2062607;28;20219;-64
2023/04/14 04:14:17;;;;;;;3.97;2.08;;;;;19.30;99860.00;;;;2069907;28;20765;-65
2023/04/14 04:15:17;;;;;;;2.95;1.92;;;;;19.30;99859.00;;;;2078885;28;20240;-64
2023/04/14 04:16:17;;;;;;;2.90;1.93;;;;;19.30;99847.00;;;;2079292;28;20717;-64
2023/04/14 04:17:18;;;;;;;3.67;1.87;;;;;19.30;99868.00;;;;2079316;28;20205;-64
2023/04/14 04:18:18;;;;;;;3.23;1.90;;;;;19.30;99859.00;;;;2075629;28;20251;-64
2023/04/14 04:19:20;;;;;;;4.20;2.27;;;;;19.30;99851.00;;;;2079207;28;20219;-64
2023/04/14 04:20:21;;;;;;;3.10;2.20;;;;;19.30;99867.00;;;;2078523;28;20251;-64
2023/04/14 04:21:21;;;;;;;2.80;1.60;;;;;19.30;99868.00;;;;2071366;28;20246;-64
2023/04/14 04:22:21;;;;;;;3.60;2.23;;;;;19.30;99867.00;;;;2078407;28;20209;-64
2023/04/14 04:23:22;;;;;;;3.30;2.00;;;;;19.30;99853.00;;;;2079382;28;20218;-64
2023/04/14 04:24:22;;;;;;;3.93;2.03;;;;;19.30;99856.00;;;;2071285;28;20252;-64
2023/04/14 04:25:23;;;;;;;2.80;1.87;;;;;19.30;99876.00;;;;2070181;28;20211;-65
2023/04/14 04:26:24;;;;;;;2.83;1.67;;;;;19.30;99863.00;;;;2079466;28;20479;-64
2023/04/14 04:27:24;;;;;;;3.97;1.90;;;;;19.30;99875.00;;;;2080432;28;20236;-64
2023/04/14 04:28:25;;;;;;;1.93;1.60;;;;;19.30;99875.00;;;;2071100;28;20264;-64
2023/04/14 04:29:26;;;;;;;2.80;2.00;;;;;19.30;99877.00;;;;2070427;28;20252;-64
2023/04/14 04:30:27;;;;;;;2.03;1.77;;;;;19.30;99881.00;;;;2071092;28;20218;-64
2023/04/14 04:31:27;;;;;;;2.03;1.65;;;;;19.20;99879.00;;;;2063369;28;20215;-64
2023/04/14 04:32:28;;;;;;;3.00;1.73;;;;;19.20;99879.00;;;;2077824;28;20234;-64
2023/04/14 04:33:28;;;;;;;3.17;2.23;;;;;19.30;99859.00;;;;2079383;28;20580;-64
2023/04/14 04:34:30;;;;;;;1.80;1.50;;;;;19.30;99872.00;;;;2072889;28;20227;-64
2023/04/14 04:35:31;;;;;;;2.60;1.60;;;;;19.30;99860.00;;;;2071447;28;20222;-65
2023/04/14 04:36:32;;;;;;;2.47;1.87;;;;;19.30;99876.00;;;;2070421;28;20222;-64
2023/04/14 04:37:33;;;;;;;2.00;1.80;;;;;19.20;99870.00;;;;2079424;28;20459;-65
2023/04/14 04:38:33;;;;;;;2.50;1.73;;;;;19.20;99876.00;;;;2071022;28;20425;-65
2023/04/14 04:39:34;;;;;;;2.43;1.70;;;;;19.30;99874.00;;;;2062333;28;20262;-64
2023/04/14 04:40:36;;;;;;;2.73;1.67;;;;;19.30;99872.00;;;;2079374;28;20228;-64
2023/04/14 04:41:36;;;;;;;2.10;1.80;;;;;19.30;99874.00;;;;2082736;28;20228;-64
2023/04/14 04:42:41;;;;;;;2.60;1.70;;;;;19.30;99875.00;;;;2080921;28;20256;-64
2023/04/14 04:43:41;;;;;;;2.65;1.80;;;;;19.30;99873.00;;;;2081199;28;20202;-64
2023/04/14 04:44:41;;;;;;;2.23;1.53;;;;;19.30;99877.00;;;;2084858;28;20683;-64
2023/04/14 04:45:56;;;;;;;2.03;1.40;;;;;19.20;99873.00;;;;2078663;28;20216;-65
2023/04/14 04:46:57;;;;;;;2.50;1.83;;;;;19.30;99880.00;;;;2079231;28;20225;-64
2023/04/14 04:47:57;;;;;;;1.90;1.60;;;;;19.30;99871.00;;;;2079583;28;20612;-64
2023/04/14 04:48:57;;;;;;;2.30;1.70;;;;;19.30;99868.00;;;;2079117;28;20263;-65
2023/04/14 04:49:58;;;;;;;2.53;1.67;;;;;19.20;99863.00;;;;2079892;28;20565;-64
2023/04/14 04:50:58;;;;;;;2.90;2.17;;;;;19.20;99871.00;;;;2082124;28;20576;-64
2023/04/14 04:51:58;;;;;;;3.50;2.10;;;;;19.20;99870.00;;;;2078861;28;20673;-64
2023/04/14 04:52:59;;;;;;;2.80;1.87;;;;;19.20;99868.00;;;;2078751;28;20805;-64
2023/04/14 04:53:59;;;;;;;5.80;1.70;;;;;19.20;99870.00;;;;2079976;28;20453;-65
2023/04/14 04:54:59;;;;;;;2.67;2.10;;;;;19.20;99874.00;;;;2079065;28;20641;-64
2023/04/14 04:56:01;;;;;;;3.53;2.10;;;;;19.20;99875.00;;;;2078689;28;20224;-64
2023/04/14 04:57:01;;;;;;;2.35;1.70;;;;;19.20;99868.00;;;;2079853;28;20718;-64
2023/04/14 04:58:01;;;;;;;2.40;1.73;;;;;19.20;99875.00;;;;2078921;28;20737;-64
2023/04/14 04:59:02;;;;;;;3.77;1.77;;;;;19.20;99873.00;;;;2079698;28;20274;-64
2023/04/14 05:00:03;;;;;;;3.97;1.83;;;;;19.20;99867.00;;;;2077995;28;20232;-64
2023/04/14 05:01:08;;;;;;;2.53;1.85;;;;;19.20;99875.00;;;;2070950;28;20324;-64
2023/04/14 05:02:08;;;;;;;3.58;1.98;;;;;19.20;99877.00;;;;2077439;28;20214;-64
2023/04/14 05:03:08;;;;;;;3.07;2.40;;;;;19.20;99866.00;;;;2084206;28;20228;-64
2023/04/14 05:04:09;;;;;;;2.90;1.67;;;;;19.20;99874.00;;;;2079425;28;20228;-64
2023/04/14 05:05:10;;;;;;;4.90;2.00;;;;;19.20;99875.00;;;;2078031;28;20230;-65
2023/04/14 05:06:10;;;;;;;2.53;1.60;;;;;19.20;99870.00;;;;2079432;28;20295;-64
2023/04/14 05:07:10;;;;;;;2.27;1.70;;;;;19.20;99864.00;;;;2078570;28;20552;-64
2023/04/14 05:08:11;;;;;;;2.57;1.63;;;;;19.30;99873.00;;;;2079853;28;20567;-64
2023/04/14 05:09:11;;;;;;;2.70;1.80;;;;;19.30;99878.00;;;;2079193;28;20722;-64
2023/04/14 05:10:11;;;;;;;2.13;1.70;;;;;19.30;99873.00;;;;2079340;28;20218;-64
2023/04/14 05:11:12;;;;;;;3.03;2.03;;;;;19.30;99877.00;;;;2078818;28;20259;-64